Time;durP1;ratioP1;P1;durP2;ratioP2;P2;SDS_P1;SDS_P2;PMS_P1;PMS_P2;Temp;Humidity;BMP_temperature;BMP_pressure;BME280_temperature;BME280_humidity;BME280_pressure;Samples;Min_cycle;Max_cycle;Signal;HPM_P1;HPM_P2
2023/06/05 00:01:15;;;;;;;9.23;4.72;;;15.80;99.90;;;;;;4127807;28;20050;-62
2023/06/05 00:03:17;;;;;;;4.93;3.63;;;15.80;99.90;;;;;;4128287;28;20039;-62
2023/06/05 00:05:19;;;;;;;4.30;3.65;;;15.80;99.90;;;;;;4128801;28;20042;-64
2023/06/05 00:07:20;;;;;;;6.15;3.85;;;15.80;99.90;;;;;;4127924;28;20034;-62
2023/06/05 00:09:21;;;;;;;7.20;3.90;;;15.80;99.90;;;;;;4128713;28;20089;-67
2023/06/05 00:11:22;;;;;;;7.28;3.75;;;15.70;99.90;;;;;;4127537;28;20042;-64
2023/06/05 00:13:23;;;;;;;9.32;4.30;;;15.70;99.90;;;;;;4128677;28;20468;-64
2023/06/05 00:15:25;;;;;;;7.95;3.75;;;15.60;99.90;;;;;;4127953;28;20066;-62
2023/06/05 00:17:26;;;;;;;6.43;3.80;;;15.60;99.90;;;;;;4129646;28;20474;-67
2023/06/05 00:19:27;;;;;;;6.57;4.20;;;15.50;99.90;;;;;;4143032;28;20022;-68
2023/06/05 00:21:29;;;;;;;6.28;3.63;;;15.50;99.90;;;;;;4129044;28;20042;-70
2023/06/05 00:23:30;;;;;;;4.78;3.85;;;15.40;99.90;;;;;;4128035;28;20023;-66
2023/06/05 00:25:31;;;;;;;6.10;3.17;;;15.40;99.90;;;;;;4129093;28;20077;-64
2023/06/05 00:27:32;;;;;;;7.50;4.07;;;15.30;99.90;;;;;;4127490;28;20043;-63
2023/06/05 00:29:34;;;;;;;6.35;3.83;;;15.30;99.90;;;;;;4128507;28;20042;-63
2023/06/05 00:31:35;;;;;;;8.90;3.67;;;15.20;99.90;;;;;;4128297;28;20781;-64
2023/06/05 00:33:36;;;;;;;6.82;3.80;;;15.20;99.90;;;;;;4128245;28;20093;-67
2023/06/05 00:35:38;;;;;;;4.65;3.55;;;15.10;99.90;;;;;;4128701;28;20422;-64
2023/06/05 00:37:39;;;;;;;6.55;3.65;;;15.00;99.90;;;;;;4127262;28;20026;-64
2023/06/05 00:39:40;;;;;;;7.45;3.85;;;15.00;99.90;;;;;;4128926;28;20043;-63
2023/06/05 00:41:42;;;;;;;8.55;3.80;;;14.90;99.90;;;;;;4127761;28;20054;-72
2023/06/05 00:43:43;;;;;;;5.30;3.35;;;14.90;99.90;;;;;;4128965;28;20317;-61
2023/06/05 00:45:44;;;;;;;6.65;3.90;;;14.90;99.90;;;;;;4127557;28;20097;-61
2023/06/05 00:47:46;;;;;;;6.90;3.58;;;14.90;99.90;;;;;;4129051;28;20034;-62
2023/06/05 00:49:48;;;;;;;3.47;3.17;;;14.90;99.90;;;;;;4127459;28;20077;-62
2023/06/05 00:51:50;;;;;;;4.10;3.20;;;14.90;99.90;;;;;;4130793;28;20569;-61
2023/06/05 00:53:51;;;;;;;5.57;3.22;;;14.90;99.90;;;;;;4130909;28;20030;-62
2023/06/05 00:55:52;;;;;;;4.25;2.90;;;14.90;99.90;;;;;;4146666;28;20037;-67
2023/06/05 00:57:54;;;;;;;6.22;3.17;;;14.90;99.90;;;;;;4130477;28;20093;-62
2023/06/05 00:59:55;;;;;;;6.40;3.50;;;14.90;99.90;;;;;;4131229;28;20523;-61
2023/06/05 01:01:57;;;;;;;6.18;3.22;;;14.90;99.90;;;;;;4130765;28;20494;-62
2023/06/05 01:03:58;;;;;;;8.40;3.65;;;14.90;99.90;;;;;;4130830;28;20038;-62
2023/06/05 01:06:04;;;;;;;3.28;2.85;;;14.90;99.90;;;;;;4131338;28;20073;-62
2023/06/05 01:08:06;;;;;;;5.13;3.33;;;14.90;99.90;;;;;;4130522;28;20038;-62
2023/06/05 01:10:11;;;;;;;7.88;3.80;;;14.90;99.90;;;;;;4131598;28;20034;-62
2023/06/05 01:12:18;;;;;;;10.63;3.20;;;14.90;99.90;;;;;;4130893;28;21418;-66
2023/06/05 01:14:22;;;;;;;3.50;3.03;;;14.90;99.90;;;;;;4131867;28;20026;-73
2023/06/05 01:16:30;;;;;;;3.50;2.80;;;14.90;99.90;;;;;;4130507;28;20097;-63
2023/06/05 01:18:32;;;;;;;7.43;3.05;;;14.90;99.90;;;;;;4131950;28;20030;-63
2023/06/05 01:20:37;;;;;;;3.60;2.80;;;14.90;99.90;;;;;;4129933;28;20380;-64
2023/06/05 01:22:39;;;;;;;4.72;3.33;;;14.90;99.90;;;;;;4146637;28;20068;-62
2023/06/05 01:24:40;;;;;;;4.88;3.17;;;14.90;99.90;;;;;;4129411;28;20112;-63
2023/06/05 01:27:07;;;;;;;3.70;3.10;;;14.90;99.90;;;;;;4131622;28;20101;-63
2023/06/05 01:29:12;;;;;;;6.15;3.00;;;14.80;99.90;;;;;;4130383;28;20022;-63
2023/06/05 01:31:19;;;;;;;3.00;2.65;;;14.80;99.90;;;;;;4131377;28;20663;-65
2023/06/05 01:33:30;;;;;;;4.55;3.55;;;14.80;99.90;;;;;;4129997;28;20561;-61
2023/06/05 01:35:33;;;;;;;6.32;3.25;;;14.80;99.90;;;;;;4131027;28;20022;-61
2023/06/05 01:37:40;;;;;;;5.68;3.10;;;14.70;99.90;;;;;;4129968;28;20038;-63
2023/06/05 01:39:44;;;;;;;3.92;2.97;;;14.70;99.90;;;;;;4129548;28;20085;-61
2023/06/05 01:41:47;;;;;;;8.43;3.58;;;14.70;99.90;;;;;;4129650;28;20061;-63
2023/06/05 01:43:49;;;;;;;5.82;3.28;;;14.60;99.90;;;;;;4131421;28;20430;-62
2023/06/05 01:45:51;;;;;;;4.78;3.80;;;14.60;99.90;;;;;;4129497;28;20031;-62
2023/06/05 01:47:53;;;;;;;5.38;2.95;;;14.50;99.90;;;;;;4131680;28;20019;-62
2023/06/05 01:49:55;;;;;;;9.75;3.50;;;14.40;99.90;;;;;;4129982;28;20108;-62
2023/06/05 01:51:56;;;;;;;4.60;3.40;;;14.40;99.90;;;;;;4130067;28;20030;-65
2023/06/05 01:53:57;;;;;;;6.30;3.42;;;14.40;99.90;;;;;;4130284;28;20422;-64
2023/06/05 01:55:59;;;;;;;4.75;3.40;;;14.30;99.90;;;;;;4130119;28;20084;-64
2023/06/05 01:58:00;;;;;;;5.17;3.03;;;14.30;99.90;;;;;;4130375;28;20438;-65
2023/06/05 02:00:03;;;;;;;5.07;3.03;;;14.20;99.90;;;;;;4129756;28;20038;-64
2023/06/05 02:02:05;;;;;;;4.82;3.05;;;14.20;99.90;;;;;;4129270;28;20050;-63
2023/06/05 02:04:06;;;;;;;4.20;2.65;;;14.20;99.90;;;;;;4129543;28;20038;-63
2023/06/05 02:06:07;;;;;;;5.30;3.38;;;14.10;99.90;;;;;;4130222;28;20096;-63
2023/06/05 02:08:09;;;;;;;7.30;3.33;;;14.10;99.90;;;;;;4129103;28;20046;-62
2023/06/05 02:10:11;;;;;;;5.00;2.58;;;14.20;99.90;;;;;;4130808;28;20490;-63
2023/06/05 02:12:14;;;;;;;4.95;3.22;;;14.10;99.90;;;;;;4129780;28;20537;-63
2023/06/05 02:14:15;;;;;;;8.70;3.40;;;14.10;99.90;;;;;;4130979;28;20069;-64
2023/06/05 02:16:17;;;;;;;7.53;3.08;;;14.10;99.90;;;;;;4129669;28;20445;-63
2023/06/05 02:18:18;;;;;;;3.40;3.00;;;14.10;99.90;;;;;;4130205;28;20042;-62
2023/06/05 02:20:22;;;;;;;4.43;2.60;;;14.10;99.90;;;;;;4128643;28;20486;-62
2023/06/05 02:22:23;;;;;;;3.92;3.05;;;14.10;99.90;;;;;;4129459;28;20050;-63
2023/06/05 02:24:27;;;;;;;4.33;3.30;;;14.00;99.90;;;;;;4129373;28;20089;-62
2023/06/05 02:26:29;;;;;;;4.10;2.67;;;14.00;99.90;;;;;;4130052;28;20026;-63
2023/06/05 02:28:30;;;;;;;5.45;3.35;;;14.00;99.90;;;;;;4129621;28;20073;-63
2023/06/05 02:30:32;;;;;;;4.15;3.05;;;14.00;99.90;;;;;;4129843;28;20046;-64
2023/06/05 02:32:34;;;;;;;5.23;3.20;;;14.00;99.90;;;;;;4129796;28;20030;-62
2023/06/05 02:34:35;;;;;;;4.88;3.10;;;13.90;99.90;;;;;;4128829;28;20034;-63
2023/06/05 02:36:36;;;;;;;6.60;3.42;;;13.90;99.90;;;;;;4129659;28;20034;-62
2023/06/05 02:38:38;;;;;;;6.47;2.97;;;13.80;99.90;;;;;;4129087;28;20542;-62
2023/06/05 02:40:39;;;;;;;4.50;3.63;;;13.80;99.90;;;;;;4130525;28;20093;-64
2023/06/05 02:42:41;;;;;;;3.90;2.97;;;13.80;99.90;;;;;;4129015;28;20046;-62
2023/06/05 02:44:42;;;;;;;6.15;3.85;;;13.80;99.90;;;;;;4144687;28;20111;-68
2023/06/05 02:46:43;;;;;;;5.87;3.33;;;13.80;99.90;;;;;;4128964;28;20823;-62
2023/06/05 02:48:44;;;;;;;6.50;3.53;;;13.90;99.90;;;;;;4129872;28;20450;-61
2023/06/05 02:50:45;;;;;;;5.93;3.30;;;13.90;99.90;;;;;;4128402;28;20547;-64
2023/06/05 02:52:46;;;;;;;10.33;3.53;;;13.90;99.90;;;;;;4129771;28;20042;-62
2023/06/05 02:54:48;;;;;;;6.00;3.53;;;13.90;99.90;;;;;;4129010;28;20094;-64
2023/06/05 02:56:49;;;;;;;5.40;3.37;;;14.00;99.90;;;;;;4129996;28;20026;-63
2023/06/05 02:58:51;;;;;;;9.27;3.30;;;14.00;99.90;;;;;;4129225;28;20023;-62
2023/06/05 03:00:53;;;;;;;4.65;3.38;;;14.10;99.90;;;;;;4128408;28;20046;-64
2023/06/05 03:02:55;;;;;;;5.93;3.90;;;14.30;99.90;;;;;;4129538;28;20034;-63
2023/06/05 03:04:56;;;;;;;4.85;3.10;;;14.50;99.90;;;;;;4128559;28;20353;-65
2023/06/05 03:06:59;;;;;;;5.23;2.70;;;14.60;99.90;;;;;;4128764;28;20049;-64
2023/06/05 03:09:00;;;;;;;5.38;3.40;;;14.70;99.90;;;;;;4128218;28;20046;-63
2023/06/05 03:11:03;;;;;;;4.75;2.95;;;14.80;99.90;;;;;;4129387;28;20034;-62
2023/06/05 03:13:04;;;;;;;7.37;3.33;;;14.90;99.90;;;;;;4128308;28;20084;-62
2023/06/05 03:15:06;;;;;;;5.45;2.97;;;15.10;99.90;;;;;;4129894;28;20030;-62
2023/06/05 03:17:07;;;;;;;4.38;3.42;;;15.10;99.90;;;;;;4126496;28;20038;-61
2023/06/05 03:19:10;;;;;;;4.47;2.78;;;15.20;99.90;;;;;;4114141;28;20089;-63
2023/06/05 03:21:12;;;;;;;6.10;3.55;;;15.20;99.90;;;;;;4119778;28;20034;-61
2023/06/05 03:23:13;;;;;;;4.35;2.80;;;15.30;99.90;;;;;;4127668;28;20042;-62
2023/06/05 03:25:14;;;;;;;8.20;3.20;;;15.40;99.90;;;;;;4128324;28;20050;-62
2023/06/05 03:27:15;;;;;;;4.75;3.13;;;15.60;99.90;;;;;;4129367;28;20022;-62
2023/06/05 03:29:16;;;;;;;5.40;3.10;;;15.60;99.90;;;;;;4128776;28;20092;-63
2023/06/05 03:31:18;;;;;;;4.85;3.08;;;15.70;99.90;;;;;;4129375;28;20023;-62
2023/06/05 03:33:19;;;;;;;4.72;3.55;;;15.70;99.90;;;;;;4128473;28;20561;-62
2023/06/05 03:35:21;;;;;;;3.55;3.10;;;15.90;99.90;;;;;;4128616;28;20029;-62
2023/06/05 03:37:22;;;;;;;3.78;3.17;;;16.00;99.90;;;;;;4129144;28;20038;-61
2023/06/05 03:39:23;;;;;;;6.28;2.85;;;16.10;99.90;;;;;;4127625;28;20046;-61
2023/06/05 03:41:25;;;;;;;6.85;3.25;;;16.20;99.90;;;;;;4144152;28;20461;-62
2023/06/05 03:43:26;;;;;;;3.20;2.72;;;16.30;99.90;;;;;;4128363;28;20135;-62
2023/06/05 03:45:28;;;;;;;7.35;3.08;;;16.50;99.90;;;;;;4129222;28;20038;-62
2023/06/05 03:47:29;;;;;;;8.82;3.30;;;16.60;99.90;;;;;;4128499;28;20463;-62
2023/06/05 03:49:30;;;;;;;3.58;2.80;;;16.60;99.90;;;;;;4129627;28;20034;-62
2023/06/05 03:51:31;;;;;;;3.17;2.60;;;16.60;99.90;;;;;;4127907;28;20100;-62
2023/06/05 03:53:32;;;;;;;6.13;3.10;;;16.50;99.90;;;;;;4128772;28;20019;-63
2023/06/05 03:55:45;;;;;;;2.83;2.53;;;16.40;99.90;;;;;;4127620;28;20372;-62
2023/06/05 03:57:47;;;;;;;6.45;3.30;;;16.40;99.90;;;;;;4117761;28;20038;-65
2023/06/05 03:59:49;;;;;;;5.38;2.80;;;16.50;99.90;;;;;;4127646;28;20068;-65
2023/06/05 04:01:50;;;;;;;5.00;3.22;;;16.40;99.90;;;;;;4128978;28;20042;-69
2023/06/05 04:03:51;;;;;;;5.57;2.60;;;16.40;99.90;;;;;;4127839;28;20498;-64
2023/06/05 04:05:52;;;;;;;8.13;2.92;;;16.40;99.90;;;;;;4128242;28;20084;-62
2023/06/05 04:07:53;;;;;;;5.32;2.80;;;16.50;99.90;;;;;;4127322;28;20030;-64
2023/06/05 04:09:55;;;;;;;3.53;2.50;;;16.60;99.90;;;;;;4127380;28;20503;-65
2023/06/05 04:11:56;;;;;;;6.43;3.20;;;16.70;99.90;;;;;;4142698;28;20509;-62
2023/06/05 04:13:57;;;;;;;3.90;2.47;;;17.00;99.90;;;;;;4127867;28;20034;-65
2023/06/05 04:16:01;;;;;;;5.97;2.92;;;17.30;99.90;;;;;;4129048;28;20092;-67
2023/06/05 04:18:02;;;;;;;3.17;2.40;;;17.60;99.90;;;;;;4128123;28;20450;-66
2023/06/05 04:20:04;;;;;;;3.53;2.75;;;17.80;99.90;;;;;;4129092;28;20057;-62
2023/06/05 04:22:06;;;;;;;4.72;3.00;;;18.10;99.90;;;;;;4127655;28;20096;-64
2023/06/05 04:24:09;;;;;;;7.15;2.58;;;18.50;99.90;;;;;;4128504;28;20092;-61
2023/06/05 04:26:11;;;;;;;6.38;2.38;;;18.90;99.90;;;;;;4128473;28;20454;-62
2023/06/05 04:28:12;;;;;;;3.78;2.50;;;19.20;99.90;;;;;;4132233;28;20475;-65
2023/06/05 04:30:13;;;;;;;7.18;3.25;;;19.30;99.90;;;;;;4131348;28;20046;-63
2023/06/05 04:32:16;;;;;;;2.90;2.60;;;19.40;99.90;;;;;;4131712;28;20042;-68
2023/06/05 04:34:20;;;;;;;3.40;2.30;;;19.40;99.90;;;;;;4130242;28;20097;-61
2023/06/05 04:36:21;;;;;;;2.83;2.30;;;19.50;99.90;;;;;;4131217;28;20380;-62
2023/06/05 04:38:22;;;;;;;4.75;2.20;;;19.80;99.90;;;;;;4115135;28;20038;-62
2023/06/05 04:40:24;;;;;;;4.13;2.47;;;20.20;99.90;;;;;;4128938;28;20046;-64
2023/06/05 04:42:26;;;;;;;3.35;2.22;;;20.70;99.90;;;;;;4131303;28;20464;-62
2023/06/05 04:44:27;;;;;;;4.20;2.45;;;21.20;99.90;;;;;;4130016;28;20038;-66
2023/06/05 04:46:28;;;;;;;4.32;2.33;;;21.50;99.90;;;;;;4131814;28;20085;-62
2023/06/05 04:48:30;;;;;;;3.45;2.40;;;21.80;99.90;;;;;;4130467;28;20077;-63
2023/06/05 04:50:33;;;;;;;5.43;2.40;;;21.90;99.90;;;;;;4132102;28;20076;-62
2023/06/05 04:52:35;;;;;;;2.95;2.35;;;22.20;99.90;;;;;;4130746;28;20084;-62
2023/06/05 04:54:36;;;;;;;5.25;2.70;;;22.70;99.90;;;;;;4131787;28;20084;-63
2023/06/05 04:56:39;;;;;;;4.03;2.03;;;22.80;99.90;;;;;;4130017;28;20081;-63
2023/06/05 04:58:40;;;;;;;6.13;2.25;;;22.90;99.90;;;;;;4131089;28;20038;-64
2023/06/05 05:00:42;;;;;;;4.68;2.45;;;23.10;99.90;;;;;;4130648;28;21458;-63
2023/06/05 05:02:43;;;;;;;3.17;1.88;;;23.60;99.90;;;;;;4131355;28;20104;-65
2023/06/05 05:04:45;;;;;;;3.58;2.10;;;24.00;99.90;;;;;;4130373;28;20107;-63
2023/06/05 05:06:47;;;;;;;3.40;1.77;;;24.40;99.50;;;;;;4131050;28;20600;-62
2023/06/05 05:08:48;;;;;;;5.85;2.38;;;24.70;98.80;;;;;;4129827;28;20120;-63
2023/06/05 05:10:49;;;;;;;2.50;1.83;;;24.90;98.30;;;;;;4130851;28;20039;-64
2023/06/05 05:12:50;;;;;;;5.30;2.20;;;25.00;97.60;;;;;;4144419;28;20026;-62
2023/06/05 05:14:52;;;;;;;2.50;2.10;;;25.00;97.30;;;;;;4128495;28;20077;-62
2023/06/05 05:16:55;;;;;;;4.68;2.20;;;24.70;97.00;;;;;;4131058;28;20035;-61
2023/06/05 05:18:56;;;;;;;2.40;1.92;;;24.20;97.00;;;;;;4129145;28;20104;-62
2023/06/05 05:20:57;;;;;;;5.38;2.00;;;24.20;97.10;;;;;;4131169;28;20510;-61
2023/06/05 05:23:00;;;;;;;4.40;2.03;;;24.30;97.00;;;;;;4129959;28;20034;-62
2023/06/05 05:25:01;;;;;;;4.78;1.95;;;24.50;96.80;;;;;;4131643;28;20022;-63
2023/06/05 05:27:02;;;;;;;6.03;2.17;;;24.80;96.40;;;;;;4129982;28;20042;-69
2023/06/05 05:29:04;;;;;;;4.03;2.10;;;24.80;96.00;;;;;;4131213;28;20034;-71
2023/06/05 05:31:05;;;;;;;3.63;1.88;;;24.80;95.70;;;;;;4130331;28;20019;-72
2023/06/05 05:33:06;;;;;;;3.40;2.03;;;25.00;95.50;;;;;;4131069;28;20034;-66
2023/06/05 05:35:08;;;;;;;3.13;1.70;;;25.00;95.30;;;;;;4129604;28;20046;-66
2023/06/05 05:37:09;;;;;;;2.78;2.08;;;25.20;95.10;;;;;;4130312;28;20034;-71
2023/06/05 05:39:10;;;;;;;4.03;1.90;;;25.40;94.80;;;;;;4129605;28;20132;-62
2023/06/05 05:41:11;;;;;;;3.17;1.90;;;25.40;94.50;;;;;;4130642;28;20475;-64
2023/06/05 05:43:12;;;;;;;3.70;1.67;;;25.50;94.10;;;;;;4130344;28;20046;-63
2023/06/05 05:45:13;;;;;;;3.15;2.00;;;25.70;94.00;;;;;;4128958;28;20450;-67
2023/06/05 05:47:15;;;;;;;2.90;2.60;;;25.90;93.70;;;;;;4128499;28;20050;-65
2023/06/05 05:49:16;;;;;;;4.43;2.30;;;26.10;93.10;;;;;;4130315;28;20096;-63
2023/06/05 05:51:17;;;;;;;2.78;2.28;;;26.20;92.80;;;;;;4130639;28;20042;-62
2023/06/05 05:53:19;;;;;;;2.78;1.98;;;26.40;92.50;;;;;;4128616;28;20080;-63
2023/06/05 05:55:20;;;;;;;4.80;2.45;;;26.90;92.20;;;;;;4143366;28;20025;-63
2023/06/05 05:57:22;;;;;;;8.52;2.70;;;27.30;91.70;;;;;;4146219;28;20084;-64
2023/06/05 05:59:23;;;;;;;12.75;4.72;;;27.10;91.30;;;;;;4132858;28;20096;-62
2023/06/05 06:01:24;;;;;;;19.90;3.97;;;27.20;91.10;;;;;;4146004;28;20462;-63
2023/06/05 06:03:28;;;;;;;17.67;3.53;;;26.50;91.30;;;;;;4146821;28;20033;-63
2023/06/05 06:05:30;;;;;;;18.02;3.92;;;25.70;91.50;;;;;;4145903;28;20168;-63
2023/06/05 06:07:31;;;;;;;16.65;3.83;;;25.40;91.90;;;;;;4146306;28;20096;-63
2023/06/05 06:09:33;;;;;;;20.92;5.07;;;25.90;91.80;;;;;;4145320;28;20118;-61
2023/06/05 06:11:36;;;;;;;17.10;4.88;;;25.90;91.30;;;;;;4132330;28;20447;-62
2023/06/05 06:13:37;;;;;;;24.75;5.07;;;25.90;91.30;;;;;;4129783;28;20026;-62
2023/06/05 06:15:39;;;;;;;25.70;4.75;;;25.70;91.20;;;;;;4130103;28;20372;-62
2023/06/05 06:17:40;;;;;;;26.35;4.97;;;24.80;91.70;;;;;;4129656;28;20046;-63
2023/06/05 06:19:42;;;;;;;23.90;4.82;;;24.30;92.10;;;;;;4130246;28;20080;-63
2023/06/05 06:21:43;;;;;;;24.35;5.00;;;23.90;92.50;;;;;;4130163;28;20034;-62
2023/06/05 06:23:44;;;;;;;29.10;5.57;;;23.50;92.70;;;;;;4128851;28;20116;-62
2023/06/05 06:25:46;;;;;;;14.93;3.47;;;23.30;93.00;;;;;;4130180;28;20042;-63
2023/06/05 06:27:53;;;;;;;10.68;3.40;;;23.30;93.10;;;;;;4129130;28;20088;-63
2023/06/05 06:29:54;;;;;;;8.70;3.08;;;23.60;92.80;;;;;;4130044;28;20458;-62
2023/06/05 06:31:55;;;;;;;3.75;2.40;;;23.50;92.90;;;;;;4128902;28;20050;-64
2023/06/05 06:33:56;;;;;;;6.85;2.70;;;23.30;93.20;;;;;;4129768;28;20046;-65
2023/06/05 06:36:00;;;;;;;8.00;2.75;;;23.10;93.30;;;;;;4128965;28;20113;-64
2023/06/05 06:38:01;;;;;;;6.65;3.20;;;23.10;93.40;;;;;;4130160;28;20069;-62
2023/06/05 06:40:06;;;;;;;5.90;2.42;;;23.10;93.10;;;;;;4128841;28;20089;-62
2023/06/05 06:42:10;;;;;;;4.82;2.72;;;22.90;93.10;;;;;;4129642;28;20537;-62
2023/06/05 06:44:11;;;;;;;5.40;2.45;;;22.80;93.00;;;;;;4126894;28;20068;-66
2023/06/05 06:46:12;;;;;;;5.18;2.35;;;23.20;92.70;;;;;;4129671;28;20437;-65
2023/06/05 06:48:13;;;;;;;2.92;2.30;;;23.10;92.60;;;;;;4128514;28;20476;-64
2023/06/05 06:50:15;;;;;;;6.60;2.63;;;23.00;92.70;;;;;;4130106;28;20089;-64
2023/06/05 06:52:18;;;;;;;5.97;2.53;;;22.80;92.80;;;;;;4129249;28;20035;-62
2023/06/05 06:54:19;;;;;;;5.97;2.03;;;23.00;92.90;;;;;;4128846;28;20030;-68
2023/06/05 06:56:21;;;;;;;3.05;1.92;;;23.30;92.40;;;;;;4128662;28;20096;-63
2023/06/05 06:58:23;;;;;;;3.72;2.33;;;23.20;92.20;;;;;;4128790;28;20139;-64
2023/06/05 07:00:24;;;;;;;3.97;3.00;;;23.40;92.30;;;;;;4128810;28;20042;-65
2023/06/05 07:02:25;;;;;;;6.53;2.53;;;23.30;92.60;;;;;;4128529;28;20588;-63
2023/06/05 07:04:27;;;;;;;7.20;2.55;;;23.00;93.20;;;;;;4129556;28;20030;-63
2023/06/05 07:06:28;;;;;;;3.10;2.63;;;23.00;93.70;;;;;;4127808;28;20030;-63
2023/06/05 07:08:29;;;;;;;3.33;2.90;;;23.10;93.80;;;;;;4129563;28;20058;-64
2023/06/05 07:10:30;;;;;;;4.10;2.55;;;23.30;94.10;;;;;;4127914;28;20093;-65
2023/06/05 07:12:31;;;;;;;3.50;2.45;;;23.20;94.00;;;;;;4129356;28;20084;-66
2023/06/05 07:14:36;;;;;;;3.22;2.40;;;23.20;94.10;;;;;;4128026;28;20023;-63
2023/06/05 07:16:37;;;;;;;4.90;2.78;;;23.30;94.00;;;;;;4129196;28;20038;-62
2023/06/05 07:18:40;;;;;;;2.88;2.40;;;23.60;94.00;;;;;;4127931;28;20086;-64
2023/06/05 07:20:41;;;;;;;4.70;2.70;;;23.60;94.00;;;;;;4128454;28;20054;-63
2023/06/05 07:22:44;;;;;;;3.83;2.40;;;23.60;94.30;;;;;;4128147;28;20057;-62
2023/06/05 07:24:46;;;;;;;3.50;2.50;;;23.30;94.70;;;;;;4128367;28;20093;-62
2023/06/05 07:26:47;;;;;;;6.45;3.05;;;23.10;95.00;;;;;;4128986;28;20030;-64
2023/06/05 07:28:49;;;;;;;4.32;2.58;;;23.00;95.40;;;;;;4127262;28;20077;-63
2023/06/05 07:30:50;;;;;;;4.50;2.80;;;22.90;95.80;;;;;;4128969;28;20113;-66
2023/06/05 07:32:51;;;;;;;7.47;3.40;;;23.00;95.70;;;;;;4128382;28;20140;-64
2023/06/05 07:34:52;;;;;;;6.72;3.08;;;23.00;96.00;;;;;;4129406;28;20085;-63
2023/06/05 07:36:56;;;;;;;4.70;2.95;;;23.10;95.90;;;;;;4128189;28;20022;-62
2023/06/05 07:38:57;;;;;;;3.33;2.72;;;23.10;95.90;;;;;;4129184;28;20039;-66
2023/06/05 07:41:01;;;;;;;6.43;2.90;;;23.10;96.10;;;;;;4127271;28;20042;-61
2023/06/05 07:43:02;;;;;;;4.65;2.97;;;23.10;96.20;;;;;;4128423;28;20491;-62
2023/06/05 07:45:05;;;;;;;4.03;2.75;;;23.10;96.20;;;;;;4127632;28;20050;-60
2023/06/05 07:47:06;;;;;;;2.92;2.55;;;23.20;96.10;;;;;;4128498;28;20081;-61
2023/06/05 07:49:08;;;;;;;2.95;2.50;;;23.30;96.00;;;;;;4119713;28;20053;-63
2023/06/05 07:51:10;;;;;;;6.90;3.30;;;23.20;96.00;;;;;;4123375;28;20026;-61
2023/06/05 07:53:11;;;;;;;7.57;2.75;;;23.30;96.10;;;;;;4125743;28;21118;-61
2023/06/05 07:55:12;;;;;;;4.60;3.15;;;23.30;96.00;;;;;;4127791;28;20081;-61
2023/06/05 07:57:13;;;;;;;7.00;3.00;;;23.40;96.00;;;;;;4127422;28;20038;-63
2023/06/05 07:59:16;;;;;;;4.53;3.03;;;23.60;95.90;;;;;;4125908;28;20105;-64
2023/06/05 08:01:17;;;;;;;3.65;2.55;;;23.60;96.00;;;;;;4126113;28;20348;-62
2023/06/05 08:03:19;;;;;;;3.38;2.53;;;23.50;96.00;;;;;;4125177;28;20124;-62
2023/06/05 08:05:21;;;;;;;3.67;2.65;;;23.50;96.20;;;;;;4127189;28;20050;-62
2023/06/05 08:07:22;;;;;;;6.03;4.28;;;23.50;96.30;;;;;;4126465;28;20058;-62
2023/06/05 08:09:23;;;;;;;5.28;2.72;;;23.80;96.20;;;;;;4127815;28;20753;-64
2023/06/05 08:11:24;;;;;;;5.60;2.70;;;23.90;96.10;;;;;;4127020;28;20038;-64
2023/06/05 08:13:26;;;;;;;3.35;2.65;;;23.80;96.00;;;;;;4127074;28;20046;-64
2023/06/05 08:15:27;;;;;;;8.18;5.15;;;23.70;96.10;;;;;;4125720;28;20038;-65
2023/06/05 08:17:28;;;;;;;6.63;2.90;;;23.90;96.00;;;;;;4126795;28;20093;-62
2023/06/05 08:19:29;;;;;;;7.28;3.50;;;24.00;96.20;;;;;;4126895;28;20031;-63
2023/06/05 08:21:31;;;;;;;6.57;3.20;;;23.70;96.70;;;;;;4127723;28;20042;-63
2023/06/05 08:23:32;;;;;;;3.83;3.00;;;23.50;97.50;;;;;;4126560;28;20054;-63
2023/06/05 08:25:33;;;;;;;3.38;2.42;;;23.30;97.20;;;;;;4127378;28;20034;-63
2023/06/05 08:27:35;;;;;;;5.63;2.70;;;23.40;97.10;;;;;;4126563;28;20034;-63
2023/06/05 08:29:36;;;;;;;4.82;2.70;;;23.60;97.00;;;;;;4127166;28;20479;-67
2023/06/05 08:31:37;;;;;;;4.18;2.75;;;23.80;96.80;;;;;;4126727;28;20093;-63
2023/06/05 08:33:41;;;;;;;6.07;2.85;;;23.70;96.80;;;;;;4122765;28;20043;-72
2023/06/05 08:35:42;;;;;;;4.13;2.60;;;23.60;96.80;;;;;;4111219;28;20077;-70
2023/06/05 08:37:44;;;;;;;4.97;2.72;;;23.80;96.80;;;;;;4110222;28;20031;-69
2023/06/05 08:39:46;;;;;;;4.97;2.22;;;23.90;96.50;;;;;;4123023;28;20796;-64
2023/06/05 08:41:51;;;;;;;6.03;2.65;;;23.90;96.60;;;;;;4126413;28;20034;-68
2023/06/05 08:43:53;;;;;;;2.70;2.20;;;23.80;96.30;;;;;;4125546;28;20133;-66
2023/06/05 08:45:59;;;;;;;7.35;2.70;;;23.70;96.50;;;;;;4124900;28;20097;-59
2023/06/05 08:48:01;;;;;;;4.50;2.97;;;23.70;96.60;;;;;;4125841;28;20085;-62
2023/06/05 08:50:04;;;;;;;4.13;2.72;;;23.90;96.30;;;;;;4125310;28;20084;-64
2023/06/05 08:52:07;;;;;;;3.65;2.25;;;24.00;96.20;;;;;;4126147;28;20034;-62
2023/06/05 08:54:13;;;;;;;4.40;2.08;;;24.20;96.00;;;;;;4108743;28;20051;-63
2023/06/05 08:56:15;;;;;;;2.80;1.70;;;24.20;95.50;;;;;;4110275;28;20038;-62
2023/06/05 08:58:16;;;;;;;9.93;2.60;;;24.20;95.20;;;;;;4135530;28;20095;-64
2023/06/05 09:00:18;;;;;;;3.65;2.20;;;24.40;95.10;;;;;;4144506;28;20038;-63
2023/06/05 09:02:19;;;;;;;4.13;2.40;;;24.20;95.10;;;;;;4143532;28;20026;-63
2023/06/05 09:04:20;;;;;;;2.17;1.88;;;24.20;95.30;;;;;;4135088;28;20035;-62
2023/06/05 09:06:22;;;;;;;4.80;2.30;;;24.40;95.10;;;;;;4126709;28;20039;-63
2023/06/05 09:08:32;;;;;;;4.18;2.13;;;24.60;94.90;;;;;;4126856;28;20568;-68
2023/06/05 09:10:34;;;;;;;2.03;1.70;;;24.60;94.50;;;;;;4127401;28;20083;-69
2023/06/05 09:12:55;;;;;;;2.00;1.80;;;24.60;94.60;;;;;;4129196;28;20098;-63
2023/06/05 09:14:56;;;;;;;3.65;2.22;;;24.50;94.70;;;;;;4129446;28;20026;-62
2023/06/05 09:16:58;;;;;;;3.75;1.98;;;24.50;94.90;;;;;;4128999;28;20105;-65
2023/06/05 09:19:00;;;;;;;5.35;2.35;;;24.20;95.20;;;;;;4129992;28;20088;-63
2023/06/05 09:21:12;;;;;;;4.57;2.38;;;24.00;95.60;;;;;;4129566;28;20085;-62
2023/06/05 09:23:28;;;;;;;3.15;2.70;;;23.90;96.20;;;;;;4130508;28;20392;-63
2023/06/05 09:25:50;;;;;;;2.83;2.40;;;24.00;96.40;;;;;;4129957;28;20426;-70
2023/06/05 09:28:06;;;;;;;4.05;2.20;;;24.30;96.00;;;;;;4130965;28;20042;-65
2023/06/05 09:30:08;;;;;;;4.35;2.47;;;24.50;96.00;;;;;;4129843;28;20046;-62
2023/06/05 09:32:15;;;;;;;2.33;1.70;;;24.80;95.80;;;;;;4129795;28;20034;-61
2023/06/05 09:34:27;;;;;;;3.60;2.00;;;25.30;95.60;;;;;;4129766;28;20038;-64
2023/06/05 09:36:34;;;;;;;2.38;1.75;;;25.60;94.80;;;;;;4130964;28;20122;-62
2023/06/05 09:38:37;;;;;;;3.10;2.20;;;25.40;94.70;;;;;;4129949;28;20081;-63
2023/06/05 09:40:39;;;;;;;6.20;2.30;;;25.40;94.60;;;;;;4124960;28;20108;-64
2023/06/05 09:42:40;;;;;;;5.07;2.45;;;25.20;94.70;;;;;;4128364;28;20043;-60
2023/06/05 09:44:57;;;;;;;3.85;1.98;;;25.00;94.90;;;;;;4130436;28;20121;-62
2023/06/05 09:47:07;;;;;;;7.28;2.10;;;25.00;94.90;;;;;;4123432;28;20414;-65
2023/06/05 09:49:08;;;;;;;5.05;1.85;;;25.40;95.10;;;;;;4130511;28;21396;-62
2023/06/05 09:51:17;;;;;;;2.53;1.75;;;25.60;94.80;;;;;;4128904;28;20027;-62
2023/06/05 09:53:20;;;;;;;3.08;1.85;;;25.50;94.30;;;;;;4114130;28;20047;-62
2023/06/05 09:55:23;;;;;;;2.55;1.80;;;25.50;94.50;;;;;;4113392;28;20043;-61
2023/06/05 09:57:26;;;;;;;3.88;1.83;;;25.50;94.50;;;;;;4114443;28;20493;-61
2023/06/05 09:59:32;;;;;;;2.92;1.83;;;25.40;94.50;;;;;;4120859;28;20509;-62
2023/06/05 10:01:36;;;;;;;3.03;1.58;;;25.30;94.10;;;;;;4129576;28;20035;-60
2023/06/05 10:03:40;;;;;;;2.40;1.65;;;25.40;94.30;;;;;;4129131;28;20104;-63
2023/06/05 10:05:44;;;;;;;2.72;1.80;;;25.60;94.10;;;;;;4129706;28;20034;-63
2023/06/05 10:07:47;;;;;;;2.85;1.92;;;25.60;94.10;;;;;;4129093;28;20046;-61
2023/06/05 10:09:52;;;;;;;4.18;1.90;;;25.60;94.10;;;;;;4130377;28;20085;-66
2023/06/05 10:11:55;;;;;;;4.88;1.77;;;25.40;93.90;;;;;;4128856;28;20031;-63
2023/06/05 10:13:59;;;;;;;1.80;1.67;;;25.40;94.10;;;;;;4144189;28;20038;-62
2023/06/05 10:16:01;;;;;;;4.13;2.05;;;25.20;94.30;;;;;;4129526;28;20019;-63
2023/06/05 10:18:03;;;;;;;2.00;1.80;;;25.10;94.50;;;;;;4129619;28;20471;-62
2023/06/05 10:20:06;;;;;;;3.60;1.88;;;25.00;94.50;;;;;;4114098;28;20101;-62
2023/06/05 10:22:07;;;;;;;2.47;1.80;;;25.00;94.40;;;;;;4113350;28;20098;-62
2023/06/05 10:24:15;;;;;;;1.55;1.45;;;25.00;94.40;;;;;;4113006;28;20043;-62
2023/06/05 10:26:41;;;;;;;2.55;2.10;;;25.00;94.30;;;;;;4127673;28;21055;-63
2023/06/05 10:29:01;;;;;;;2.95;1.67;;;25.20;94.20;;;;;;4129027;28;20034;-63
2023/06/05 10:31:02;;;;;;;;;;;25.20;94.30;;;;;;4130207;28;20034;-61
2023/06/05 10:33:52;;;;;;;3.15;1.73;;;25.20;94.60;;;;;;4128736;28;20366;-63
2023/06/05 10:36:02;;;;;;;1.52;1.42;;;25.30;94.30;;;;;;4119184;28;20149;-61
2023/06/05 10:38:33;;;;;;;2.00;1.70;;;25.40;94.00;;;;;;4126202;28;20081;-62